Penhar — PBXQ — position and weather

sailwx.info

Track history (hours):
 
Tides and Currents Weather Stations Pressure Air Temp Water Temp Dewpoint Dewpoint Depression Visibility Wind Speed Wind Dir Waves Ship Positions

Penhar

Last reported at 2017-Nov-24 05:46 UTC. Time now 2017-Nov-24 20:54 UTC.
Position N 35°60' W 005°11'.

Length 119 m; draft 5.7 m.

Type: Ship. MMSI: 246666000.

Date/timePositionNaut miles runAvg speedWind from/ knotsBaromVisibWave heightAir tempDewpointWater temp
2017-Nov-24 05:46N 35°60' W 005°11'311.2
2017-Nov-24 05:30N 35°59' W 005°15'611.1
2017-Nov-24 05:00N 35°59' W 005°22'510.7
2017-Nov-24 04:30N 35°58' W 005°28'126 9.2
2017-Nov-23 14:50N 36°19' W 008°02'43 9.4
2017-Nov-23 10:18N 36°29' W 008°54'3 9.1
2017-Nov-23 10:00N 36°30' W 008°57'16 9.3
2017-Nov-23 08:16N 36°34' W 009°16'3 8.7
2017-Nov-23 07:55N 36°36' W 009°19'4 8.8
2017-Nov-23 07:30N 36°39' W 009°22'4 8.8
2017-Nov-23 07:00N 36°42' W 009°26'5 9.3
2017-Nov-23 06:30N 36°46' W 009°30'5 9.0
2017-Nov-23 06:00N 36°50' W 009°33'5 9.2
2017-Nov-23 05:30N 36°54' W 009°34'18 9.3
2017-Nov-23 03:33N 37°12' W 009°39'1 9.1
2017-Nov-23 03:25N 37°13' W 009°39'4 9.0
2017-Nov-23 03:00N 37°16' W 009°40'5 9.2
2017-Nov-23 02:30N 37°21' W 009°42'5 9.3
2017-Nov-23 01:57N 37°26' W 009°43'4 9.2
2017-Nov-23 01:30N 37°30' W 009°44'5 9.6
2017-Nov-23 01:00N 37°34' W 009°46'5 9.4
2017-Nov-23 00:30N 37°39' W 009°47'5 9.3
2017-Nov-23 00:00N 37°44' W 009°49'5 9.2
2017-Nov-22 23:29N 37°48' W 009°50'5 9.2
2017-Nov-22 22:56N 37°53' W 009°52'4 9.2
2017-Nov-22 22:29N 37°57' W 009°54'5 9.5
2017-Nov-22 21:59N 38°02' W 009°55'5 9.4
2017-Nov-22 21:30N 38°06' W 009°57'5 9.5
2017-Nov-22 20:59N 38°11' W 009°59'5 9.5
2017-Nov-22 20:30N 38°15' W 009°60'5 9.4
2017-Nov-22 20:00N 38°20' W 009°59'5 9.3
2017-Nov-22 19:30N 38°24' W 010°01'  
2017-Nov-20 00:10N 48°16' W 006°17'2 9.8
2017-Nov-19 23:57N 48°18' W 006°15'610.4
2017-Nov-19 23:24N 48°23' W 006°11'510.8
2017-Nov-19 22:56N 48°28' W 006°08'511.1
2017-Nov-19 22:29N 48°32' W 006°04'611.4
2017-Nov-19 21:57N 48°37' W 005°60'511.3
2017-Nov-19 21:30N 48°41' W 005°56'611.4
2017-Nov-19 21:00N 48°47' W 005°52'611.4
2017-Nov-19 20:29N 48°52' W 005°47'510.6
2017-Nov-19 20:00N 48°55' W 005°41'510.3
2017-Nov-19 19:28N 48°58' W 005°34'510.0
2017-Nov-19 18:58N 49°01' W 005°28'5 9.5
2017-Nov-19 18:27N 49°03' W 005°21'4 9.3
2017-Nov-19 17:59N 49°05' W 005°16'5 8.9
2017-Nov-19 17:26N 49°08' W 005°09'6 8.7
2017-Nov-19 16:45N 49°11' W 005°01'14 8.7
2017-Nov-19 15:06N 49°18' W 004°42'2 9.2
2017-Nov-19 14:56N 49°19' W 004°40'4 9.4
2017-Nov-19 14:30N 49°21' W 004°35'5 9.9
2017-Nov-19 13:59N 49°24' W 004°29'4711.1
2017-Nov-19 09:48N 49°47' W 003°26'310.3
2017-Nov-19 09:30N 49°49' W 003°22'5 9.9
2017-Nov-19 09:00N 49°51' W 003°15'5 9.3
2017-Nov-19 08:30N 49°53' W 003°09'5 8.9
2017-Nov-19 07:58N 49°55' W 003°02'4 8.7
2017-Nov-19 07:30N 49°57' W 002°57'4 8.5
2017-Nov-19 07:00N 49°59' W 002°51'5 8.6
2017-Nov-19 06:26N 50°00' W 002°43'2410.0
2017-Nov-19 03:59N 50°07' W 002°07'612.4
2017-Nov-19 03:30N 50°09' W 001°58'713.2
2017-Nov-19 03:00N 50°11' W 001°48'713.6
2017-Nov-19 02:30N 50°13' W 001°38'713.6
2017-Nov-19 02:00N 50°15' W 001°28'4211.5
2017-Nov-18 22:24N 50°27' W 000°25'4 8.9
2017-Nov-18 22:00N 50°28' W 000°20'4 8.4
2017-Nov-18 21:30N 50°29' W 000°14'4 8.2
2017-Nov-18 21:00N 50°30' W 000°08'4 8.0
2017-Nov-18 20:30N 50°31' W 000°02'4 7.9
2017-Nov-18 20:00N 50°33' E 000°04'4 7.4
2017-Nov-18 19:30N 50°34' E 000°10'4 7.9
2017-Nov-18 19:00N 50°35' E 000°16'4 8.5
2017-Nov-18 18:30N 50°36' E 000°22'5 9.4
2017-Nov-18 18:00N 50°37' E 000°29'5 9.7
2017-Nov-18 17:30N 50°39' E 000°36'510.2
2017-Nov-18 17:00N 50°42' E 000°43'510.6
2017-Nov-18 16:30N 50°45' E 000°50'510.7
2017-Nov-18 16:00N 50°48' E 000°57'510.4
2017-Nov-18 15:29N 50°51' E 001°04'510.0
2017-Nov-18 15:00N 50°54' E 001°10'5 9.7
2017-Nov-18 14:27N 50°58' E 001°16'4 9.0
2017-Nov-18 14:00N 51°00' E 001°21'4 8.3
2017-Nov-18 13:30N 51°03' E 001°26'4 7.7
2017-Nov-18 13:00N 51°06' E 001°31'4 7.0
2017-Nov-18 12:30N 51°08' E 001°35'4 7.1
2017-Nov-18 12:00N 51°10' E 001°39'4 7.6
2017-Nov-18 11:30N 51°13' E 001°44'4 8.4
2017-Nov-18 11:00N 51°16' E 001°48'5 9.0
2017-Nov-18 10:30N 51°19' E 001°53'5 9.9
2017-Nov-18 10:00N 51°23' E 001°58'4 8.6
2017-Nov-18 09:30N 51°24' E 002°04'5 9.8
2017-Nov-18 09:00N 51°22' E 002°12'5 9.9
2017-Nov-18 08:30N 51°21' E 002°19'711.1
2017-Nov-18 07:54N 51°23' E 002°30'510.7
2017-Nov-18 07:26N 51°23' E 002°38'510.5
2017-Nov-18 06:59N 51°22' E 002°45'5 9.7
2017-Nov-18 06:30N 51°22' E 002°53'510.1
2017-Nov-18 06:00N 51°22' E 003°01'510.6
2017-Nov-18 05:30N 51°23' E 003°09'511.0
2017-Nov-18 05:00N 51°24' E 003°18'611.9
2017-Nov-18 04:30N 51°24' E 003°27'510.9
2017-Nov-18 04:00N 51°25' E 003°36'510.7
2017-Nov-18 03:30N 51°23' E 003°43'511.0
2017-Nov-18 03:00N 51°21' E 003°52'510.0
2017-Nov-18 02:30N 51°25' E 003°57'3 5.9
2017-Nov-18 02:00N 51°25' E 004°02'4 7.0
2017-Nov-18 01:30N 51°22' E 004°06'4 7.6
2017-Nov-18 01:00N 51°24' E 004°11'4 7.7
2017-Nov-18 00:30N 51°21' E 004°15'1 2.5
2017-Nov-18 00:00N 51°21' E 004°17'1 1.6
2017-Nov-17 23:30N 51°22' E 004°17'0 0.2
2017-Nov-17 23:00N 51°22' E 004°17'0 0.0
2017-Nov-17 22:30N 51°22' E 004°17'0 0.0
2017-Nov-17 22:00N 51°22' E 004°17'0 0.0
2017-Nov-17 21:30N 51°22' E 004°17'0 0.0
2017-Nov-17 21:00N 51°22' E 004°17'0 0.0
2017-Nov-17 20:30N 51°22' E 004°17'0 0.0
2017-Nov-17 20:00N 51°22' E 004°17'0 0.0
2017-Nov-17 19:30N 51°22' E 004°17'0 0.0
2017-Nov-17 19:00N 51°22' E 004°17'0 0.0
2017-Nov-17 18:30N 51°22' E 004°17'0 0.0
2017-Nov-17 18:00N 51°22' E 004°17'0 0.1
2017-Nov-17 17:30N 51°22' E 004°17'0 0.0
2017-Nov-17 17:00N 51°22' E 004°17'0 0.0
2017-Nov-17 16:30N 51°22' E 004°17'0 0.0
2017-Nov-17 16:00N 51°22' E 004°17'0 0.0
2017-Nov-17 15:30N 51°22' E 004°17'0 0.0
2017-Nov-17 15:00N 51°22' E 004°17'0 0.0
2017-Nov-17 14:30N 51°22' E 004°17'0 0.0
2017-Nov-17 14:00N 51°22' E 004°17'0 0.0
2017-Nov-17 13:30N 51°22' E 004°17'0 0.0
2017-Nov-17 13:00N 51°22' E 004°17'0 0.0
2017-Nov-17 12:30N 51°22' E 004°17'0 0.0
2017-Nov-17 12:00N 51°22' E 004°17'0 0.0
2017-Nov-17 11:30N 51°22' E 004°17'0 0.0
2017-Nov-17 11:00N 51°22' E 004°17'0 0.0
2017-Nov-17 10:30N 51°22' E 004°17'0 0.0
2017-Nov-17 10:00N 51°22' E 004°17'0 0.0
2017-Nov-17 09:30N 51°22' E 004°17'0 0.0
2017-Nov-17 09:00N 51°22' E 004°17'0 0.0
2017-Nov-17 08:30N 51°22' E 004°17'0 0.0
2017-Nov-17 08:00N 51°22' E 004°17'0 0.0
2017-Nov-17 07:30N 51°22' E 004°17'0 0.0
2017-Nov-17 07:00N 51°22' E 004°17'0 0.0
2017-Nov-17 06:30N 51°22' E 004°17'0 0.0
2017-Nov-17 06:00N 51°22' E 004°17'0 0.0
2017-Nov-17 05:30N 51°22' E 004°17'0 0.0
2017-Nov-17 05:00N 51°22' E 004°17'0 0.0
2017-Nov-17 04:30N 51°22' E 004°17'0 0.0
2017-Nov-17 04:00N 51°22' E 004°17'0 0.0
2017-Nov-17 03:30N 51°22' E 004°17'0 0.0
2017-Nov-17 03:00N 51°22' E 004°17'0 0.0
2017-Nov-17 02:30N 51°22' E 004°17'0 0.0
2017-Nov-17 02:00N 51°22' E 004°17'0 0.0
2017-Nov-17 01:30N 51°22' E 004°17'0 0.0
2017-Nov-17 01:00N 51°22' E 004°17'0 0.0
2017-Nov-17 00:30N 51°22' E 004°17'0 0.0
2017-Nov-17 00:00N 51°22' E 004°17'0 0.0
2017-Nov-16 23:30N 51°22' E 004°17'0 0.0
2017-Nov-16 23:00N 51°22' E 004°17'0 0.0
2017-Nov-16 22:30N 51°22' E 004°17'0 0.0
2017-Nov-16 22:00N 51°22' E 004°17'0 0.0
2017-Nov-16 21:30N 51°22' E 004°17'0 0.0
2017-Nov-16 21:00N 51°22' E 004°17'0 0.0
2017-Nov-16 20:30N 51°22' E 004°17'0 0.0
2017-Nov-16 20:00N 51°22' E 004°17'0 0.0
2017-Nov-16 19:30N 51°22' E 004°17'0 0.0
2017-Nov-16 19:00N 51°22' E 004°17'0 0.0
2017-Nov-16 18:30N 51°22' E 004°17'0 0.0
2017-Nov-16 18:00N 51°22' E 004°17'0 0.0
2017-Nov-16 17:30N 51°22' E 004°17'0 0.0
2017-Nov-16 17:00N 51°22' E 004°17'0 0.0
2017-Nov-16 16:30N 51°22' E 004°17'0 0.0
2017-Nov-16 16:00N 51°22' E 004°17'0 0.0
2017-Nov-16 15:30N 51°22' E 004°17'0 0.0
2017-Nov-16 15:00N 51°22' E 004°17'0 0.0
2017-Nov-16 14:30N 51°22' E 004°17'0 0.0
2017-Nov-16 14:00N 51°22' E 004°17'0 0.0
2017-Nov-16 13:30N 51°22' E 004°17'0 0.0
2017-Nov-16 13:00N 51°22' E 004°17'0 0.0
2017-Nov-16 12:30N 51°22' E 004°17'0 0.0
2017-Nov-16 12:00N 51°22' E 004°17'0 0.0
2017-Nov-16 11:30N 51°22' E 004°17'0 0.0
2017-Nov-16 11:00N 51°22' E 004°17'0 0.0
2017-Nov-16 10:30N 51°22' E 004°17'0 0.0
2017-Nov-16 10:00N 51°22' E 004°17'0 0.0
2017-Nov-16 09:30N 51°22' E 004°17'0 0.0
2017-Nov-16 09:00N 51°22' E 004°17'0 0.0
2017-Nov-16 08:30N 51°22' E 004°17'0 0.0
2017-Nov-16 08:00N 51°22' E 004°17'0 0.0
2017-Nov-16 07:30N 51°22' E 004°17'0 0.0
2017-Nov-16 07:00N 51°22' E 004°17'0 0.0
2017-Nov-16 06:30N 51°22' E 004°17'0 0.0
2017-Nov-16 06:00N 51°22' E 004°17'0 0.0
2017-Nov-16 05:30N 51°22' E 004°17'0 0.0
2017-Nov-16 05:00N 51°22' E 004°17'0 0.0
2017-Nov-16 04:30N 51°22' E 004°17'0 0.0
2017-Nov-16 04:00N 51°22' E 004°17'0 0.0
2017-Nov-16 03:30N 51°22' E 004°17'0 0.0
2017-Nov-16 03:00N 51°22' E 004°17'0 0.0
2017-Nov-16 02:30N 51°22' E 004°17'0 0.0
2017-Nov-16 02:00N 51°22' E 004°17'0 0.0
2017-Nov-16 01:30N 51°22' E 004°17'0 0.0
2017-Nov-16 01:00N 51°22' E 004°17'0 0.0
2017-Nov-16 00:30N 51°22' E 004°17'0 0.0
2017-Nov-16 00:00N 51°22' E 004°17'0 0.0
2017-Nov-15 23:30N 51°22' E 004°17'0 0.2
2017-Nov-15 23:00N 51°22' E 004°17'1 1.6
2017-Nov-15 22:31N 51°21' E 004°17'0 0.3
2017-Nov-15 22:01N 51°21' E 004°17'1 1.5
2017-Nov-15 21:31N 51°21' E 004°16'3 5.7
2017-Nov-15 21:00N 51°23' E 004°13'3 6.5
2017-Nov-15 20:30N 51°22' E 004°08'4 7.5
2017-Nov-15 20:00N 51°24' E 004°02'3 5.8
2017-Nov-15 19:30N 51°25' E 003°58'510.7
2017-Nov-15 19:00N 51°21' E 003°53'510.6
2017-Nov-15 18:30N 51°22' E 003°44'510.0
2017-Nov-15 18:00N 51°26' E 003°40'4 8.0
2017-Nov-15 17:30N 51°27' E 003°34'4 8.8
2017-Nov-15 17:00N 51°30' E 003°29'611.0
2017-Nov-15 16:30N 51°34' E 003°24'511.1
2017-Nov-15 16:00N 51°39' E 003°20'611.0
2017-Nov-15 15:30N 51°44' E 003°15'3 4.7
2017-Nov-15 14:51N 51°47' E 003°18'1 2.6
2017-Nov-15 14:28N 51°47' E 003°19'1 0.9
2017-Nov-15 13:34N 51°48' E 003°20'0 0.0
2017-Nov-15 08:25N 51°48' E 003°20'0 0.0
2017-Nov-15 07:13N 51°48' E 003°20'0 0.0
2017-Nov-15 02:25N 51°48' E 003°20'0 0.0
2017-Nov-15 01:46N 51°48' E 003°20'0 0.0
2017-Nov-15 01:22N 51°48' E 003°20'0 0.0
2017-Nov-15 00:58N 51°48' E 003°20'0 0.0
2017-Nov-15 00:19N 51°48' E 003°20'0 0.0
2017-Nov-14 22:55N 51°48' E 003°20'0 0.0
2017-Nov-14 21:07N 51°48' E 003°20'0 0.0
2017-Nov-14 20:55N 51°48' E 003°20'0 0.1
2017-Nov-14 20:25N 51°48' E 003°20'0 0.1
2017-Nov-14 19:58N 51°48' E 003°20'0 0.1
2017-Nov-14 19:25N 51°48' E 003°20'0 0.0
2017-Nov-14 18:52N 51°48' E 003°20'0 0.0
2017-Nov-14 18:28N 51°48' E 003°20'0 0.0
2017-Nov-14 17:58N 51°48' E 003°20'0 0.0
2017-Nov-14 17:28N 51°48' E 003°20'0 0.1
2017-Nov-14 16:58N 51°48' E 003°20'0 0.1
2017-Nov-14 16:28N 51°48' E 003°20'0 0.1
2017-Nov-14 15:55N 51°48' E 003°20'0 0.1
2017-Nov-14 15:28N 51°48' E 003°20'0 0.0
2017-Nov-14 14:58N 51°48' E 003°20'0 0.0
2017-Nov-14 14:28N 51°48' E 003°20'0 0.0
2017-Nov-14 12:14N 51°48' E 003°20'0 0.5
2017-Nov-14 11:55N 51°48' E 003°20'410.3
2017-Nov-14 11:30N 51°46' E 003°13'5 9.8
2017-Nov-14 10:59N 51°50' E 003°07'16 9.5
2017-Nov-14 09:17N 51°47' E 002°41'3 8.8
2017-Nov-14 08:58N 51°49' E 002°38'  
Track history (hours):
 
Tides and Currents Weather Stations Pressure Air Temp Water Temp Dewpoint Dewpoint Depression Visibility Wind Speed Wind Dir Waves Ship Positions

Penhar

Last reported at 2017-Nov-24 05:46 UTC. Time now 2017-Nov-24 20:54 UTC.
Position N 35°60' W 005°11'.

Length 119 m; draft 5.7 m.

Type: Ship. MMSI: 246666000.

Date/timePositionNaut miles runAvg speedWind from/ knotsBaromVisibWave heightAir tempDewpointWater temp
2017-Nov-24 05:46N 35°60' W 005°11'311.2
2017-Nov-24 05:30N 35°59' W 005°15'611.1
2017-Nov-24 05:00N 35°59' W 005°22'510.7
2017-Nov-24 04:30N 35°58' W 005°28'126 9.2
2017-Nov-23 14:50N 36°19' W 008°02'43 9.4
2017-Nov-23 10:18N 36°29' W 008°54'3 9.1
2017-Nov-23 10:00N 36°30' W 008°57'16 9.3
2017-Nov-23 08:16N 36°34' W 009°16'3 8.7
2017-Nov-23 07:55N 36°36' W 009°19'4 8.8
2017-Nov-23 07:30N 36°39' W 009°22'4 8.8
2017-Nov-23 07:00N 36°42' W 009°26'5 9.3
2017-Nov-23 06:30N 36°46' W 009°30'5 9.0
2017-Nov-23 06:00N 36°50' W 009°33'5 9.2
2017-Nov-23 05:30N 36°54' W 009°34'18 9.3
2017-Nov-23 03:33N 37°12' W 009°39'1 9.1
2017-Nov-23 03:25N 37°13' W 009°39'4 9.0
2017-Nov-23 03:00N 37°16' W 009°40'5 9.2
2017-Nov-23 02:30N 37°21' W 009°42'5 9.3
2017-Nov-23 01:57N 37°26' W 009°43'4 9.2
2017-Nov-23 01:30N 37°30' W 009°44'5 9.6
2017-Nov-23 01:00N 37°34' W 009°46'5 9.4
2017-Nov-23 00:30N 37°39' W 009°47'5 9.3
2017-Nov-23 00:00N 37°44' W 009°49'5 9.2
2017-Nov-22 23:29N 37°48' W 009°50'5 9.2
2017-Nov-22 22:56N 37°53' W 009°52'4 9.2
2017-Nov-22 22:29N 37°57' W 009°54'5 9.5
2017-Nov-22 21:59N 38°02' W 009°55'5 9.4
2017-Nov-22 21:30N 38°06' W 009°57'5 9.5
2017-Nov-22 20:59N 38°11' W 009°59'5 9.5
2017-Nov-22 20:30N 38°15' W 009°60'5 9.4
2017-Nov-22 20:00N 38°20' W 009°59'5 9.3
2017-Nov-22 19:30N 38°24' W 010°01'  
2017-Nov-20 00:10N 48°16' W 006°17'2 9.8
2017-Nov-19 23:57N 48°18' W 006°15'610.4
2017-Nov-19 23:24N 48°23' W 006°11'510.8
2017-Nov-19 22:56N 48°28' W 006°08'511.1
2017-Nov-19 22:29N 48°32' W 006°04'611.4
2017-Nov-19 21:57N 48°37' W 005°60'511.3
2017-Nov-19 21:30N 48°41' W 005°56'611.4
2017-Nov-19 21:00N 48°47' W 005°52'611.4
2017-Nov-19 20:29N 48°52' W 005°47'510.6
2017-Nov-19 20:00N 48°55' W 005°41'510.3
2017-Nov-19 19:28N 48°58' W 005°34'510.0
2017-Nov-19 18:58N 49°01' W 005°28'5 9.5
2017-Nov-19 18:27N 49°03' W 005°21'4 9.3
2017-Nov-19 17:59N 49°05' W 005°16'5 8.9
2017-Nov-19 17:26N 49°08' W 005°09'6 8.7
2017-Nov-19 16:45N 49°11' W 005°01'14 8.7
2017-Nov-19 15:06N 49°18' W 004°42'2 9.2
2017-Nov-19 14:56N 49°19' W 004°40'4 9.4
2017-Nov-19 14:30N 49°21' W 004°35'5 9.9
2017-Nov-19 13:59N 49°24' W 004°29'4711.1
2017-Nov-19 09:48N 49°47' W 003°26'310.3
2017-Nov-19 09:30N 49°49' W 003°22'5 9.9
2017-Nov-19 09:00N 49°51' W 003°15'5 9.3
2017-Nov-19 08:30N 49°53' W 003°09'5 8.9
2017-Nov-19 07:58N 49°55' W 003°02'4 8.7
2017-Nov-19 07:30N 49°57' W 002°57'4 8.5
2017-Nov-19 07:00N 49°59' W 002°51'5 8.6
2017-Nov-19 06:26N 50°00' W 002°43'2410.0
2017-Nov-19 03:59N 50°07' W 002°07'612.4
2017-Nov-19 03:30N 50°09' W 001°58'713.2
2017-Nov-19 03:00N 50°11' W 001°48'713.6
2017-Nov-19 02:30N 50°13' W 001°38'713.6
2017-Nov-19 02:00N 50°15' W 001°28'4211.5
2017-Nov-18 22:24N 50°27' W 000°25'4 8.9
2017-Nov-18 22:00N 50°28' W 000°20'4 8.4
2017-Nov-18 21:30N 50°29' W 000°14'4 8.2
2017-Nov-18 21:00N 50°30' W 000°08'4 8.0
2017-Nov-18 20:30N 50°31' W 000°02'4 7.9
2017-Nov-18 20:00N 50°33' E 000°04'4 7.4
2017-Nov-18 19:30N 50°34' E 000°10'4 7.9
2017-Nov-18 19:00N 50°35' E 000°16'4 8.5
2017-Nov-18 18:30N 50°36' E 000°22'5 9.4
2017-Nov-18 18:00N 50°37' E 000°29'5 9.7
2017-Nov-18 17:30N 50°39' E 000°36'510.2
2017-Nov-18 17:00N 50°42' E 000°43'510.6
2017-Nov-18 16:30N 50°45' E 000°50'510.7
2017-Nov-18 16:00N 50°48' E 000°57'510.4
2017-Nov-18 15:29N 50°51' E 001°04'510.0
2017-Nov-18 15:00N 50°54' E 001°10'5 9.7
2017-Nov-18 14:27N 50°58' E 001°16'4 9.0
2017-Nov-18 14:00N 51°00' E 001°21'4 8.3
2017-Nov-18 13:30N 51°03' E 001°26'4 7.7
2017-Nov-18 13:00N 51°06' E 001°31'4 7.0
2017-Nov-18 12:30N 51°08' E 001°35'4 7.1
2017-Nov-18 12:00N 51°10' E 001°39'4 7.6
2017-Nov-18 11:30N 51°13' E 001°44'4 8.4
2017-Nov-18 11:00N 51°16' E 001°48'5 9.0
2017-Nov-18 10:30N 51°19' E 001°53'5 9.9
2017-Nov-18 10:00N 51°23' E 001°58'4 8.6
2017-Nov-18 09:30N 51°24' E 002°04'5 9.8
2017-Nov-18 09:00N 51°22' E 002°12'5 9.9
2017-Nov-18 08:30N 51°21' E 002°19'711.1
2017-Nov-18 07:54N 51°23' E 002°30'510.7
2017-Nov-18 07:26N 51°23' E 002°38'510.5
2017-Nov-18 06:59N 51°22' E 002°45'5 9.7
2017-Nov-18 06:30N 51°22' E 002°53'510.1
2017-Nov-18 06:00N 51°22' E 003°01'510.6
2017-Nov-18 05:30N 51°23' E 003°09'511.0
2017-Nov-18 05:00N 51°24' E 003°18'611.9
2017-Nov-18 04:30N 51°24' E 003°27'510.9
2017-Nov-18 04:00N 51°25' E 003°36'510.7
2017-Nov-18 03:30N 51°23' E 003°43'511.0
2017-Nov-18 03:00N 51°21' E 003°52'510.0
2017-Nov-18 02:30N 51°25' E 003°57'3 5.9
2017-Nov-18 02:00N 51°25' E 004°02'4 7.0
2017-Nov-18 01:30N 51°22' E 004°06'4 7.6
2017-Nov-18 01:00N 51°24' E 004°11'4 7.7
2017-Nov-18 00:30N 51°21' E 004°15'1 2.5
2017-Nov-18 00:00N 51°21' E 004°17'1 1.6
2017-Nov-17 23:30N 51°22' E 004°17'0 0.2
2017-Nov-17 23:00N 51°22' E 004°17'0 0.0
2017-Nov-17 22:30N 51°22' E 004°17'0 0.0
2017-Nov-17 22:00N 51°22' E 004°17'0 0.0
2017-Nov-17 21:30N 51°22' E 004°17'0 0.0
2017-Nov-17 21:00N 51°22' E 004°17'0 0.0
2017-Nov-17 20:30N 51°22' E 004°17'0 0.0
2017-Nov-17 20:00N 51°22' E 004°17'0 0.0
2017-Nov-17 19:30N 51°22' E 004°17'0 0.0
2017-Nov-17 19:00N 51°22' E 004°17'0 0.0
2017-Nov-17 18:30N 51°22' E 004°17'0 0.0
2017-Nov-17 18:00N 51°22' E 004°17'0 0.1
2017-Nov-17 17:30N 51°22' E 004°17'0 0.0
2017-Nov-17 17:00N 51°22' E 004°17'0 0.0
2017-Nov-17 16:30N 51°22' E 004°17'0 0.0
2017-Nov-17 16:00N 51°22' E 004°17'0 0.0
2017-Nov-17 15:30N 51°22' E 004°17'0 0.0
2017-Nov-17 15:00N 51°22' E 004°17'0 0.0
2017-Nov-17 14:30N 51°22' E 004°17'0 0.0
2017-Nov-17 14:00N 51°22' E 004°17'0 0.0
2017-Nov-17 13:30N 51°22' E 004°17'0 0.0
2017-Nov-17 13:00N 51°22' E 004°17'0 0.0
2017-Nov-17 12:30N 51°22' E 004°17'0 0.0
2017-Nov-17 12:00N 51°22' E 004°17'0 0.0
2017-Nov-17 11:30N 51°22' E 004°17'0 0.0
2017-Nov-17 11:00N 51°22' E 004°17'0 0.0
2017-Nov-17 10:30N 51°22' E 004°17'0 0.0
2017-Nov-17 10:00N 51°22' E 004°17'0 0.0
2017-Nov-17 09:30N 51°22' E 004°17'0 0.0
2017-Nov-17 09:00N 51°22' E 004°17'0 0.0
2017-Nov-17 08:30N 51°22' E 004°17'0 0.0
2017-Nov-17 08:00N 51°22' E 004°17'0 0.0
2017-Nov-17 07:30N 51°22' E 004°17'0 0.0
2017-Nov-17 07:00N 51°22' E 004°17'0 0.0
2017-Nov-17 06:30N 51°22' E 004°17'0 0.0
2017-Nov-17 06:00N 51°22' E 004°17'0 0.0
2017-Nov-17 05:30N 51°22' E 004°17'0 0.0
2017-Nov-17 05:00N 51°22' E 004°17'0 0.0
2017-Nov-17 04:30N 51°22' E 004°17'0 0.0
2017-Nov-17 04:00N 51°22' E 004°17'0 0.0
2017-Nov-17 03:30N 51°22' E 004°17'0 0.0
2017-Nov-17 03:00N 51°22' E 004°17'0 0.0
2017-Nov-17 02:30N 51°22' E 004°17'0 0.0
2017-Nov-17 02:00N 51°22' E 004°17'0 0.0
2017-Nov-17 01:30N 51°22' E 004°17'0 0.0
2017-Nov-17 01:00N 51°22' E 004°17'0 0.0
2017-Nov-17 00:30N 51°22' E 004°17'0 0.0
2017-Nov-17 00:00N 51°22' E 004°17'0 0.0
2017-Nov-16 23:30N 51°22' E 004°17'0 0.0
2017-Nov-16 23:00N 51°22' E 004°17'0 0.0
2017-Nov-16 22:30N 51°22' E 004°17'0 0.0
2017-Nov-16 22:00N 51°22' E 004°17'0 0.0
2017-Nov-16 21:30N 51°22' E 004°17'0 0.0
2017-Nov-16 21:00N 51°22' E 004°17'0 0.0
2017-Nov-16 20:30N 51°22' E 004°17'0 0.0
2017-Nov-16 20:00N 51°22' E 004°17'0 0.0
2017-Nov-16 19:30N 51°22' E 004°17'0 0.0
2017-Nov-16 19:00N 51°22' E 004°17'0 0.0
2017-Nov-16 18:30N 51°22' E 004°17'0 0.0
2017-Nov-16 18:00N 51°22' E 004°17'0 0.0
2017-Nov-16 17:30N 51°22' E 004°17'0 0.0
2017-Nov-16 17:00N 51°22' E 004°17'0 0.0
2017-Nov-16 16:30N 51°22' E 004°17'0 0.0
2017-Nov-16 16:00N 51°22' E 004°17'0 0.0
2017-Nov-16 15:30N 51°22' E 004°17'0 0.0
2017-Nov-16 15:00N 51°22' E 004°17'0 0.0
2017-Nov-16 14:30N 51°22' E 004°17'0 0.0
2017-Nov-16 14:00N 51°22' E 004°17'0 0.0
2017-Nov-16 13:30N 51°22' E 004°17'0 0.0
2017-Nov-16 13:00N 51°22' E 004°17'0 0.0
2017-Nov-16 12:30N 51°22' E 004°17'0 0.0
2017-Nov-16 12:00N 51°22' E 004°17'0 0.0
2017-Nov-16 11:30N 51°22' E 004°17'0 0.0
2017-Nov-16 11:00N 51°22' E 004°17'0 0.0
2017-Nov-16 10:30N 51°22' E 004°17'0 0.0
2017-Nov-16 10:00N 51°22' E 004°17'0 0.0
2017-Nov-16 09:30N 51°22' E 004°17'0 0.0
2017-Nov-16 09:00N 51°22' E 004°17'0 0.0
2017-Nov-16 08:30N 51°22' E 004°17'0 0.0
2017-Nov-16 08:00N 51°22' E 004°17'0 0.0
2017-Nov-16 07:30N 51°22' E 004°17'0 0.0
2017-Nov-16 07:00N 51°22' E 004°17'0 0.0
2017-Nov-16 06:30N 51°22' E 004°17'0 0.0
2017-Nov-16 06:00N 51°22' E 004°17'0 0.0
2017-Nov-16 05:30N 51°22' E 004°17'0 0.0
2017-Nov-16 05:00N 51°22' E 004°17'0 0.0
2017-Nov-16 04:30N 51°22' E 004°17'0 0.0
2017-Nov-16 04:00N 51°22' E 004°17'0 0.0
2017-Nov-16 03:30N 51°22' E 004°17'0 0.0
2017-Nov-16 03:00N 51°22' E 004°17'0 0.0
2017-Nov-16 02:30N 51°22' E 004°17'0 0.0
2017-Nov-16 02:00N 51°22' E 004°17'0 0.0
2017-Nov-16 01:30N 51°22' E 004°17'0 0.0
2017-Nov-16 01:00N 51°22' E 004°17'0 0.0
2017-Nov-16 00:30N 51°22' E 004°17'0 0.0
2017-Nov-16 00:00N 51°22' E 004°17'0 0.0
2017-Nov-15 23:30N 51°22' E 004°17'0 0.2
2017-Nov-15 23:00N 51°22' E 004°17'1 1.6
2017-Nov-15 22:31N 51°21' E 004°17'0 0.3
2017-Nov-15 22:01N 51°21' E 004°17'1 1.5
2017-Nov-15 21:31N 51°21' E 004°16'3 5.7
2017-Nov-15 21:00N 51°23' E 004°13'3 6.5
2017-Nov-15 20:30N 51°22' E 004°08'4 7.5
2017-Nov-15 20:00N 51°24' E 004°02'3 5.8
2017-Nov-15 19:30N 51°25' E 003°58'510.7
2017-Nov-15 19:00N 51°21' E 003°53'510.6
2017-Nov-15 18:30N 51°22' E 003°44'510.0
2017-Nov-15 18:00N 51°26' E 003°40'4 8.0
2017-Nov-15 17:30N 51°27' E 003°34'4 8.8
2017-Nov-15 17:00N 51°30' E 003°29'611.0
2017-Nov-15 16:30N 51°34' E 003°24'511.1
2017-Nov-15 16:00N 51°39' E 003°20'611.0
2017-Nov-15 15:30N 51°44' E 003°15'3 4.7
2017-Nov-15 14:51N 51°47' E 003°18'1 2.6
2017-Nov-15 14:28N 51°47' E 003°19'1 0.9
2017-Nov-15 13:34N 51°48' E 003°20'0 0.0
2017-Nov-15 08:25N 51°48' E 003°20'0 0.0
2017-Nov-15 07:13N 51°48' E 003°20'0 0.0
2017-Nov-15 02:25N 51°48' E 003°20'0 0.0
2017-Nov-15 01:46N 51°48' E 003°20'0 0.0
2017-Nov-15 01:22N 51°48' E 003°20'0 0.0
2017-Nov-15 00:58N 51°48' E 003°20'0 0.0
2017-Nov-15 00:19N 51°48' E 003°20'0 0.0
2017-Nov-14 22:55N 51°48' E 003°20'0 0.0
2017-Nov-14 21:07N 51°48' E 003°20'0 0.0
2017-Nov-14 20:55N 51°48' E 003°20'0 0.1
2017-Nov-14 20:25N 51°48' E 003°20'0 0.1
2017-Nov-14 19:58N 51°48' E 003°20'0 0.1
2017-Nov-14 19:25N 51°48' E 003°20'0 0.0
2017-Nov-14 18:52N 51°48' E 003°20'0 0.0
2017-Nov-14 18:28N 51°48' E 003°20'0 0.0
2017-Nov-14 17:58N 51°48' E 003°20'0 0.0
2017-Nov-14 17:28N 51°48' E 003°20'0 0.1
2017-Nov-14 16:58N 51°48' E 003°20'0 0.1
2017-Nov-14 16:28N 51°48' E 003°20'0 0.1
2017-Nov-14 15:55N 51°48' E 003°20'0 0.1
2017-Nov-14 15:28N 51°48' E 003°20'0 0.0
2017-Nov-14 14:58N 51°48' E 003°20'0 0.0
2017-Nov-14 14:28N 51°48' E 003°20'0 0.0
2017-Nov-14 12:14N 51°48' E 003°20'0 0.5
2017-Nov-14 11:55N 51°48' E 003°20'410.3
2017-Nov-14 11:30N 51°46' E 003°13'5 9.8
2017-Nov-14 10:59N 51°50' E 003°07'16 9.5
2017-Nov-14 09:17N 51°47' E 002°41'3 8.8
2017-Nov-14 08:58N 51°49' E 002°38'  

Dump ship's entire track history